createdAt,value
2023-05-05T04:00:27.552Z,5.20
2023-05-05T04:02:59.277Z,5.25
2023-05-05T04:05:30.987Z,5.82
2023-05-05T04:08:02.755Z,5.80
2023-05-05T04:10:34.436Z,5.55
2023-05-05T04:13:06.134Z,5.22
2023-05-05T04:15:43.680Z,5.38
2023-05-05T04:18:15.354Z,5.38
2023-05-05T04:20:47.152Z,5.05
2023-05-05T04:23:18.796Z,5.43
2023-05-05T04:25:50.476Z,4.88
2023-05-05T04:28:22.284Z,6.63
2023-05-05T04:30:55.349Z,6.70
2023-05-05T04:33:27.011Z,6.22
2023-05-05T04:35:58.649Z,5.70
2023-05-05T04:38:30.340Z,5.70
2023-05-05T04:41:04.695Z,5.38
2023-05-05T04:43:36.397Z,5.25
2023-05-05T04:46:09.436Z,5.45
2023-05-05T04:48:41.106Z,5.28
2023-05-05T04:51:12.789Z,6.45
2023-05-05T04:53:44.431Z,5.32
2023-05-05T04:56:16.134Z,6.57
2023-05-05T04:58:47.783Z,6.32
2023-05-05T05:01:20.834Z,6.72
2023-05-05T05:03:53.058Z,5.80
2023-05-05T05:06:24.763Z,6.40
2023-05-05T05:08:56.443Z,5.60
2023-05-05T05:11:28.087Z,5.22
2023-05-05T05:13:59.791Z,6.03
2023-05-05T05:16:32.838Z,5.88
2023-05-05T05:19:04.506Z,5.95
2023-05-05T05:21:36.229Z,5.82
2023-05-05T05:24:08.003Z,5.40
2023-05-05T05:26:39.667Z,4.90
2023-05-05T05:29:11.292Z,5.22
2023-05-05T05:31:44.365Z,5.93
2023-05-05T05:34:16.090Z,5.38
2023-05-05T05:36:47.739Z,5.88
2023-05-05T05:39:19.364Z,6.13
2023-05-05T05:41:51.018Z,5.05
2023-05-05T05:44:22.723Z,6.57
2023-05-05T05:46:55.861Z,5.95
2023-05-05T05:49:27.505Z,5.72
2023-05-05T05:51:59.148Z,6.20
2023-05-05T05:54:30.763Z,6.60
2023-05-05T05:57:02.423Z,5.70
2023-05-05T05:59:34.042Z,5.90
2023-05-05T06:02:07.090Z,5.95
2023-05-05T06:04:41.651Z,6.25
2023-05-05T06:07:13.770Z,6.50
2023-05-05T06:09:45.546Z,5.40
2023-05-05T06:12:17.193Z,4.50
2023-05-05T06:14:48.874Z,5.75
2023-05-05T06:17:22.293Z,5.32
2023-05-05T06:19:54.610Z,4.90
2023-05-05T06:22:26.318Z,5.25
2023-05-05T06:24:58.321Z,6.30
2023-05-05T06:27:30.368Z,4.55
2023-05-05T06:30:01.995Z,4.95
2023-05-05T06:32:35.036Z,6.10
2023-05-05T06:35:07.706Z,5.03
2023-05-05T06:37:39.747Z,5.47
2023-05-05T06:40:12.231Z,4.65
2023-05-05T06:42:44.272Z,5.25
2023-05-05T06:45:16.025Z,5.38
2023-05-05T06:47:49.095Z,6.70
2023-05-05T06:50:20.738Z,6.40
2023-05-05T06:52:52.390Z,6.88
2023-05-05T06:55:24.457Z,6.05
2023-05-05T06:57:56.119Z,6.18
2023-05-05T07:00:27.791Z,5.78
2023-05-05T07:03:00.837Z,5.45
2023-05-05T07:05:32.759Z,5.53
2023-05-05T07:08:04.437Z,5.88
2023-05-05T07:10:36.095Z,7.45
2023-05-05T07:13:07.794Z,5.25
2023-05-05T07:15:41.496Z,6.75
2023-05-05T07:18:14.656Z,5.15
2023-05-05T07:20:46.342Z,5.55
2023-05-05T07:23:17.988Z,6.25
2023-05-05T07:25:49.668Z,4.85
2023-05-05T07:28:21.298Z,6.32
2023-05-05T07:30:52.942Z,5.40
2023-05-05T07:33:25.980Z,6.68
2023-05-05T07:35:57.621Z,5.70
2023-05-05T07:38:29.246Z,4.95
2023-05-05T07:41:00.900Z,6.30
2023-05-05T07:43:32.602Z,5.28
2023-05-05T07:46:04.364Z,6.38
2023-05-05T07:48:37.622Z,6.63
2023-05-05T07:51:09.366Z,6.97
2023-05-05T07:53:41.088Z,5.50
2023-05-05T07:56:12.770Z,6.15
2023-05-05T07:58:44.397Z,7.20
2023-05-05T08:01:16.044Z,5.32
2023-05-05T08:03:49.076Z,6.18
2023-05-05T08:06:20.786Z,6.60
2023-05-05T08:08:52.484Z,5.80
2023-05-05T08:11:24.143Z,5.15
2023-05-05T08:13:55.781Z,5.72
2023-05-05T08:16:27.565Z,5.20
2023-05-05T08:19:00.611Z,5.30
2023-05-05T08:21:32.289Z,4.68
2023-05-05T08:24:04.199Z,4.43
2023-05-05T08:26:35.859Z,4.75
2023-05-05T08:29:07.489Z,4.25
2023-05-05T08:31:39.261Z,6.43
2023-05-05T08:34:12.270Z,4.88
2023-05-05T08:36:43.923Z,4.82
2023-05-05T08:39:15.555Z,4.63
2023-05-05T08:41:47.284Z,5.85
2023-05-05T08:44:18.906Z,6.28
2023-05-05T08:46:50.629Z,6.53
2023-05-05T08:49:23.637Z,5.80
2023-05-05T08:51:55.291Z,5.47
2023-05-05T08:54:27.168Z,5.75
2023-05-05T08:56:59.104Z,6.00
2023-05-05T08:59:30.745Z,4.43
2023-05-05T09:02:02.402Z,5.05
2023-05-05T09:04:35.965Z,7.13
2023-05-05T09:07:07.770Z,7.25
2023-05-05T09:09:39.417Z,8.02
2023-05-05T09:12:11.056Z,7.22
2023-05-05T09:14:42.700Z,8.15
2023-05-05T09:17:23.522Z,7.25
2023-05-05T09:20:04.186Z,8.48
2023-05-05T09:22:36.510Z,8.63
2023-05-05T09:25:10.052Z,7.50
2023-05-05T09:27:42.749Z,9.68
2023-05-05T09:30:15.601Z,9.57
2023-05-05T09:32:47.898Z,10.07
2023-05-05T09:35:21.484Z,8.80
2023-05-05T09:37:53.124Z,9.05
2023-05-05T09:40:24.780Z,8.88
2023-05-05T09:43:00.970Z,9.00
2023-05-05T09:45:32.756Z,7.95
2023-05-05T09:48:05.072Z,7.88
2023-05-05T09:50:43.986Z,9.15
2023-05-05T09:53:15.651Z,8.00
2023-05-05T09:55:56.358Z,8.95
2023-05-05T09:58:28.684Z,7.15
2023-05-05T10:01:00.534Z,7.03
2023-05-05T10:03:32.195Z,7.88
2023-05-05T10:06:05.508Z,6.32
2023-05-05T10:08:37.171Z,5.65
2023-05-05T10:11:08.833Z,6.05
2023-05-05T10:13:40.661Z,5.05
2023-05-05T10:16:12.410Z,5.97
2023-05-05T10:18:44.101Z,6.85
2023-05-05T10:21:17.924Z,7.00
2023-05-05T10:23:52.657Z,6.55
2023-05-05T10:26:24.392Z,6.47
2023-05-05T10:28:56.479Z,5.38
2023-05-05T10:31:29.691Z,5.88
2023-05-05T10:34:03.353Z,5.00
2023-05-05T10:36:37.030Z,4.65
2023-05-05T10:39:08.726Z,6.45
2023-05-05T10:41:40.441Z,6.32
2023-05-05T10:44:12.140Z,7.30
2023-05-05T10:46:43.959Z,6.20
2023-05-05T10:49:19.402Z,5.63
2023-05-05T10:51:54.673Z,6.10
2023-05-05T10:54:30.294Z,5.50
2023-05-05T10:57:02.131Z,5.57
2023-05-05T10:59:40.838Z,5.70
2023-05-05T11:02:22.508Z,6.63
2023-05-05T11:05:04.519Z,5.15
2023-05-05T11:07:37.634Z,6.97
2023-05-05T11:10:10.251Z,7.38
2023-05-05T11:13:19.037Z,6.45
2023-05-05T11:15:51.672Z,6.78
2023-05-05T11:18:30.767Z,6.63
2023-05-05T11:21:07.151Z,5.55
2023-05-05T11:23:40.250Z,4.13
2023-05-05T11:26:12.103Z,3.25
2023-05-05T11:29:00.530Z,3.03
2023-05-05T11:31:32.479Z,2.60
2023-05-05T11:34:23.446Z,2.50
2023-05-05T11:36:57.528Z,2.55
2023-05-05T11:39:35.368Z,2.45
2023-05-05T11:42:22.720Z,2.10
2023-05-05T11:44:54.490Z,1.95
2023-05-05T11:47:32.543Z,1.85
2023-05-05T11:50:17.851Z,2.13
2023-05-05T11:52:49.543Z,2.05
2023-05-05T11:55:22.862Z,1.88
2023-05-05T11:57:54.592Z,2.20
2023-05-05T12:00:32.796Z,2.10
2023-05-05T12:03:04.642Z,2.33
2023-05-05T12:05:37.062Z,2.67
2023-05-05T12:08:08.864Z,2.30
2023-05-05T12:10:42.001Z,2.28
2023-05-05T12:13:20.006Z,2.20
2023-05-05T12:15:51.981Z,2.03
2023-05-05T12:18:23.758Z,1.90
2023-05-05T12:20:55.425Z,2.15
2023-05-05T12:23:27.161Z,2.53
2023-05-05T12:26:00.237Z,2.10
2023-05-05T12:28:43.457Z,2.78
2023-05-05T12:31:15.475Z,2.55
2023-05-05T12:33:47.510Z,2.15
2023-05-05T12:36:19.261Z,2.67
2023-05-05T12:38:50.998Z,2.85
2023-05-05T12:41:24.130Z,2.20
2023-05-05T12:43:55.934Z,2.72
2023-05-05T12:46:27.892Z,2.05
2023-05-05T12:49:00.134Z,2.45
2023-05-05T12:51:31.902Z,2.67
2023-05-05T12:54:04.941Z,2.03
2023-05-05T12:56:39.702Z,1.77
2023-05-05T12:59:11.944Z,2.28
2023-05-05T13:01:50.631Z,2.20
2023-05-05T13:04:23.172Z,2.60
2023-05-05T13:07:10.278Z,2.50
2023-05-05T13:09:42.514Z,2.95
2023-05-05T13:12:17.402Z,2.33
2023-05-05T13:14:49.128Z,2.85
2023-05-05T13:17:20.900Z,3.22
2023-05-05T13:19:52.719Z,2.88
2023-05-05T13:22:24.443Z,3.42
2023-05-05T13:24:56.216Z,3.60
2023-05-05T13:27:29.322Z,3.08
2023-05-05T13:30:00.997Z,3.85
2023-05-05T13:32:32.760Z,3.33
2023-05-05T13:35:05.195Z,3.78
2023-05-05T13:37:37.016Z,3.53
2023-05-05T13:40:10.162Z,3.45
2023-05-05T13:42:43.286Z,3.67
2023-05-05T13:45:15.086Z,3.97
2023-05-05T13:47:46.835Z,4.13
2023-05-05T13:50:18.595Z,3.80
2023-05-05T13:52:50.276Z,4.35
2023-05-05T13:55:21.955Z,4.07
2023-05-05T13:57:55.069Z,4.10
2023-05-05T14:00:26.743Z,3.80
2023-05-05T14:02:58.482Z,3.70
2023-05-05T14:05:30.154Z,4.82
2023-05-05T14:08:01.855Z,4.63
2023-05-05T14:10:33.552Z,4.28
2023-05-05T14:13:06.613Z,4.25
2023-05-05T14:15:38.326Z,4.32
2023-05-05T14:18:10.079Z,5.10
2023-05-05T14:20:41.823Z,3.92
2023-05-05T14:23:13.583Z,3.85
2023-05-05T14:25:45.293Z,2.85
2023-05-05T14:28:18.440Z,2.30
2023-05-05T14:30:50.177Z,2.45
2023-05-05T14:33:21.834Z,2.17
2023-05-05T14:35:53.593Z,2.45
2023-05-05T14:38:25.407Z,1.80
2023-05-05T14:40:57.186Z,2.20
2023-05-05T14:43:30.220Z,6.60
2023-05-05T14:46:01.944Z,6.00
2023-05-05T14:48:33.664Z,3.40
2023-05-05T14:51:05.429Z,3.47
2023-05-05T14:53:37.175Z,4.03
2023-05-05T14:56:08.866Z,3.53
2023-05-05T14:58:41.933Z,3.42
2023-05-05T15:01:13.601Z,3.47
2023-05-05T15:03:45.397Z,2.33
2023-05-05T15:06:17.166Z,2.63
2023-05-05T15:08:48.904Z,2.00
2023-05-05T15:11:20.582Z,1.63
2023-05-05T15:13:53.583Z,1.63
2023-05-05T15:16:25.259Z,1.80
2023-05-05T15:18:56.984Z,1.70
2023-05-05T15:21:28.678Z,1.80
2023-05-05T15:24:00.330Z,1.83
2023-05-05T15:26:31.979Z,1.67
2023-05-05T15:29:05.048Z,2.00
2023-05-05T15:31:37.880Z,1.63
2023-05-05T15:34:09.561Z,1.73
2023-05-05T15:36:41.255Z,1.70
2023-05-05T15:39:12.913Z,1.48
2023-05-05T15:41:44.588Z,1.50
2023-05-05T15:44:17.602Z,1.80
2023-05-05T15:46:50.475Z,1.80
2023-05-05T15:49:22.379Z,2.03
2023-05-05T15:51:54.115Z,2.10
2023-05-05T15:54:27.025Z,2.22
2023-05-05T15:56:58.698Z,2.20
2023-05-05T15:59:31.726Z,2.17
2023-05-05T16:02:03.458Z,2.40
2023-05-05T16:04:35.212Z,2.75
2023-05-05T16:07:06.952Z,2.30
2023-05-05T16:09:38.749Z,2.28
2023-05-05T16:12:10.455Z,1.90
2023-05-05T16:14:43.464Z,2.00
2023-05-05T16:17:15.120Z,2.03
2023-05-05T16:19:46.845Z,1.90
2023-05-05T16:22:18.506Z,2.08
2023-05-05T16:24:50.158Z,1.85
2023-05-05T16:27:21.920Z,2.10
2023-05-05T16:29:54.922Z,2.13
2023-05-05T16:32:26.589Z,2.67
2023-05-05T16:34:58.292Z,2.35
2023-05-05T16:37:29.989Z,2.67
2023-05-05T16:40:01.732Z,2.38
2023-05-05T16:42:33.597Z,2.70
2023-05-05T16:45:08.405Z,2.88
2023-05-05T16:47:40.425Z,2.88
2023-05-05T16:50:12.138Z,2.80
2023-05-05T16:52:43.792Z,2.70
2023-05-05T16:55:15.483Z,2.85
2023-05-05T16:57:47.117Z,2.55
2023-05-05T17:00:20.380Z,2.20
2023-05-05T17:02:52.405Z,2.00
2023-05-05T17:05:24.106Z,2.13
2023-05-05T17:07:55.770Z,2.00
2023-05-05T17:10:27.498Z,1.95
2023-05-05T17:12:59.280Z,2.05
2023-05-05T17:15:32.394Z,2.10
2023-05-05T17:18:04.555Z,2.15
2023-05-05T17:20:36.302Z,2.53
2023-05-05T17:23:07.986Z,2.50
2023-05-05T17:25:39.710Z,2.42
2023-05-05T17:28:11.372Z,2.83
2023-05-05T17:30:44.549Z,3.30
2023-05-05T17:33:16.213Z,3.00
2023-05-05T17:35:47.918Z,3.53
2023-05-05T17:38:19.597Z,4.00
2023-05-05T17:40:51.236Z,4.25
2023-05-05T17:43:23.056Z,3.97
2023-05-05T17:45:56.180Z,4.20
2023-05-05T17:48:27.875Z,5.10
2023-05-05T17:50:59.553Z,5.13
2023-05-05T17:53:31.240Z,6.00
2023-05-05T17:56:02.942Z,6.13
2023-05-05T17:58:34.623Z,6.65
2023-05-05T18:01:07.715Z,7.63
2023-05-05T18:03:40.863Z,7.30
2023-05-05T18:06:12.840Z,7.78
2023-05-05T18:08:44.786Z,10.10
2023-05-05T18:11:16.462Z,8.68
2023-05-05T18:13:48.149Z,8.88
2023-05-05T18:16:21.223Z,9.93
2023-05-05T18:18:53.780Z,10.63
2023-05-05T18:21:25.526Z,11.25
2023-05-05T18:24:04.612Z,11.05
2023-05-05T18:26:43.518Z,21.70
2023-05-05T18:29:15.209Z,14.35
2023-05-05T18:31:50.610Z,10.13
2023-05-05T18:34:22.301Z,9.52
2023-05-05T18:36:54.402Z,9.52
2023-05-05T18:39:26.128Z,10.25
2023-05-05T18:41:57.811Z,8.85
2023-05-05T18:44:29.484Z,11.93
2023-05-05T18:47:02.523Z,8.10
2023-05-05T18:49:34.269Z,8.75
2023-05-05T18:52:05.937Z,27.10
2023-05-05T18:54:37.945Z,31.02
2023-05-05T18:57:09.791Z,9.07
2023-05-05T18:59:41.476Z,8.70
2023-05-05T19:02:14.478Z,9.05
2023-05-05T19:04:46.176Z,9.85
2023-05-05T19:07:31.391Z,9.88
2023-05-05T19:10:06.894Z,9.73
2023-05-05T19:12:38.805Z,10.27
2023-05-05T19:15:11.093Z,10.05
2023-05-05T19:17:44.367Z,10.00
2023-05-05T19:20:16.134Z,10.20
2023-05-05T19:22:47.811Z,9.13
2023-05-05T19:25:19.615Z,9.77
2023-05-05T19:27:51.252Z,9.85
2023-05-05T19:30:22.960Z,9.88
2023-05-05T19:32:55.999Z,9.35
2023-05-05T19:35:27.686Z,9.65
2023-05-05T19:37:59.726Z,9.48
2023-05-05T19:40:31.404Z,10.85
2023-05-05T19:43:03.109Z,10.88
2023-05-05T19:45:34.938Z,10.25
2023-05-05T19:48:08.052Z,10.57
2023-05-05T19:50:39.728Z,11.52
2023-05-05T19:53:11.643Z,11.23
2023-05-05T19:55:43.337Z,11.75
2023-05-05T19:58:15.030Z,12.02
2023-05-05T20:00:46.679Z,11.43
2023-05-05T20:03:19.764Z,11.75
2023-05-05T20:05:51.476Z,12.10
2023-05-05T20:08:23.175Z,12.52
2023-05-05T20:10:54.951Z,11.40
2023-05-05T20:13:26.673Z,10.85
2023-05-05T20:15:58.387Z,12.05
2023-05-05T20:18:31.483Z,11.20
2023-05-05T20:21:03.289Z,11.57
2023-05-05T20:23:35.994Z,11.38
2023-05-05T20:26:07.690Z,11.38
2023-05-05T20:28:40.809Z,12.82
2023-05-05T20:31:14.025Z,12.07
2023-05-05T20:33:47.064Z,11.52
2023-05-05T20:36:18.819Z,11.88
2023-05-05T20:38:50.482Z,12.43
2023-05-05T20:41:22.205Z,11.93
2023-05-05T20:43:53.852Z,13.98
2023-05-05T20:46:25.659Z,14.80
2023-05-05T20:48:58.806Z,15.68
2023-05-05T20:51:30.534Z,17.15
2023-05-05T20:54:02.594Z,18.38
2023-05-05T20:56:34.271Z,17.35
2023-05-05T20:59:05.941Z,16.95
2023-05-05T21:01:37.629Z,20.15
2023-05-05T21:04:10.716Z,19.60
2023-05-05T21:06:42.376Z,18.73
2023-05-05T21:09:14.053Z,18.05
2023-05-05T21:11:45.762Z,19.45
2023-05-05T21:14:17.496Z,18.05
2023-05-05T21:16:49.283Z,17.48
2023-05-05T21:19:22.367Z,19.67
2023-05-05T21:21:54.082Z,18.88
2023-05-05T21:24:25.924Z,19.85
2023-05-05T21:26:57.673Z,19.85
2023-05-05T21:29:29.402Z,21.20
2023-05-05T21:32:01.265Z,19.52
2023-05-05T21:34:34.329Z,20.73
2023-05-05T21:37:06.076Z,19.90
2023-05-05T21:39:37.823Z,20.15
2023-05-05T21:42:09.558Z,21.67
2023-05-05T21:44:41.295Z,22.50
2023-05-05T21:47:12.992Z,20.58
2023-05-05T21:49:46.083Z,21.23
2023-05-05T21:52:17.724Z,18.83
2023-05-05T21:54:49.547Z,21.20
2023-05-05T21:57:21.199Z,20.08
2023-05-05T21:59:52.910Z,19.20
